createdAt,value
2022-12-28T00:00:26.985Z,101150.44
2022-12-28T00:01:31.124Z,101148.06
2022-12-28T00:02:32.743Z,101147.41
2022-12-28T00:03:35.340Z,101152.19
2022-12-28T00:04:36.970Z,101145.66
2022-12-28T00:05:39.497Z,101146.69
2022-12-28T00:06:42.863Z,101146.88
2022-12-28T00:07:45.568Z,101141.75
2022-12-28T00:08:47.699Z,101150.75
2022-12-28T00:09:50.738Z,101145.13
2022-12-28T00:11:07.844Z,101143.59
2022-12-28T00:12:13.064Z,101133.66
2022-12-28T00:13:14.700Z,101135.44
2022-12-28T00:14:17.280Z,101136.88
2022-12-28T00:15:18.834Z,101139.97
2022-12-28T00:16:25.582Z,101139.19
2022-12-28T00:17:28.472Z,101137.50
2022-12-28T00:18:33.494Z,101133.00
2022-12-28T00:19:36.297Z,101132.66
2022-12-28T00:20:37.875Z,101126.47
2022-12-28T00:21:40.634Z,101124.59
2022-12-28T00:22:43.527Z,101128.56
2022-12-28T00:23:52.328Z,101130.09
2022-12-28T00:24:53.909Z,101124.00
2022-12-28T00:26:06.322Z,101124.69
2022-12-28T00:27:10.871Z,101117.16
2022-12-28T00:28:13.589Z,101117.00
2022-12-28T00:29:15.495Z,101117.00
2022-12-28T00:30:18.020Z,101113.13
2022-12-28T00:31:19.742Z,101122.44
2022-12-28T00:32:22.361Z,101121.97
2022-12-28T00:33:23.891Z,101119.78
2022-12-28T00:34:26.399Z,101110.19
2022-12-28T00:35:27.911Z,101113.94
2022-12-28T00:37:10.861Z,101116.34
2022-12-28T00:37:55.587Z,101113.97
2022-12-28T00:38:57.174Z,101117.25
2022-12-28T00:40:00.238Z,101120.03
2022-12-28T00:41:01.796Z,101119.59
2022-12-28T00:42:07.097Z,101122.84
2022-12-28T00:43:08.614Z,101114.44
2022-12-28T00:44:11.303Z,101109.91
2022-12-28T00:45:12.885Z,101113.78
2022-12-28T00:46:15.434Z,101120.13
2022-12-28T00:47:17.043Z,101121.16
2022-12-28T00:48:19.755Z,101121.91
2022-12-28T00:49:23.920Z,101111.38
2022-12-28T00:50:26.660Z,101112.13
2022-12-28T00:51:28.574Z,101104.13
2022-12-28T00:52:31.291Z,101108.97
2022-12-28T00:53:34.403Z,101109.56
2022-12-28T00:54:36.956Z,101109.34
2022-12-28T00:55:39.292Z,101110.72
2022-12-28T00:56:42.799Z,101108.28
2022-12-28T00:57:44.338Z,101112.84
2022-12-28T00:58:47.201Z,101102.59
2022-12-28T00:59:48.743Z,101093.69
2022-12-28T01:00:51.631Z,101099.50
2022-12-28T01:01:53.230Z,101089.84
2022-12-28T01:02:55.889Z,101093.22
2022-12-28T01:03:58.388Z,101097.19
2022-12-28T01:05:00.936Z,101085.09
2022-12-28T01:06:05.337Z,101080.78
2022-12-28T01:07:07.820Z,101086.84
2022-12-28T01:08:09.401Z,101088.84
2022-12-28T01:09:13.262Z,101083.81
2022-12-28T01:10:15.025Z,101088.94
2022-12-28T01:11:20.731Z,101093.25
2022-12-28T01:12:22.445Z,101091.66
2022-12-28T01:13:24.928Z,101092.22
2022-12-28T01:14:26.491Z,101092.50
2022-12-28T01:15:29.011Z,101086.03
2022-12-28T01:16:32.390Z,101088.91
2022-12-28T01:17:34.915Z,101081.88
2022-12-28T01:18:36.386Z,101081.31
2022-12-28T01:19:38.879Z,101081.59
2022-12-28T01:20:40.791Z,101073.31
2022-12-28T01:21:43.323Z,101071.56
2022-12-28T01:22:44.815Z,101067.97
2022-12-28T01:23:48.758Z,101069.69
2022-12-28T01:24:52.718Z,101068.88
2022-12-28T01:25:54.900Z,101061.13
2022-12-28T01:27:00.096Z,101071.47
2022-12-28T01:28:01.611Z,101072.69
2022-12-28T01:29:04.981Z,101060.13
2022-12-28T01:30:07.762Z,101056.38
2022-12-28T01:31:11.979Z,101064.16
2022-12-28T01:32:13.536Z,101059.94
2022-12-28T01:33:18.619Z,101055.00
2022-12-28T01:34:21.091Z,101050.97
2022-12-28T01:35:22.578Z,101039.75
2022-12-28T01:36:26.930Z,101041.16
2022-12-28T01:37:28.401Z,101036.56
2022-12-28T01:38:37.182Z,101022.69
2022-12-28T01:39:38.796Z,101020.06
2022-12-28T01:40:44.424Z,101018.25
2022-12-28T01:41:46.324Z,101020.44
2022-12-28T01:42:48.808Z,101017.63
2022-12-28T01:44:24.057Z,101017.75
2022-12-28T01:45:26.732Z,101009.09
2022-12-28T01:46:36.104Z,101006.34
2022-12-28T01:47:39.133Z,101007.06
2022-12-28T01:48:48.324Z,101009.03
2022-12-28T01:49:58.184Z,100997.03
2022-12-28T01:50:59.820Z,100994.97
2022-12-28T01:52:07.161Z,101003.47
2022-12-28T01:53:09.973Z,100996.84
2022-12-28T01:54:12.255Z,100991.66
2022-12-28T01:55:18.338Z,100993.25
2022-12-28T01:56:22.688Z,100983.81
2022-12-28T01:57:30.206Z,100980.53
2022-12-28T01:58:34.117Z,100987.41
2022-12-28T01:59:41.688Z,100985.03
2022-12-28T02:00:43.252Z,100979.91
2022-12-28T02:01:45.833Z,100982.31
2022-12-28T02:02:52.903Z,100985.25
2022-12-28T02:03:55.730Z,100983.00
2022-12-28T02:04:58.813Z,100976.16
2022-12-28T02:06:04.293Z,100978.56
2022-12-28T02:07:05.827Z,100970.75
2022-12-28T02:08:12.759Z,100969.94
2022-12-28T02:09:19.497Z,100973.91
2022-12-28T02:10:40.558Z,100965.81
2022-12-28T02:11:47.710Z,100965.25
2022-12-28T02:12:50.380Z,100969.31
2022-12-28T02:13:55.620Z,100957.31
2022-12-28T02:14:57.213Z,100955.78
2022-12-28T02:15:59.696Z,100953.63
2022-12-28T02:17:01.366Z,100948.59
2022-12-28T02:18:04.420Z,100945.47
2022-12-28T02:19:09.651Z,100950.81
2022-12-28T02:20:12.283Z,100953.81
2022-12-28T02:21:24.405Z,100940.28
2022-12-28T02:22:47.795Z,100936.94
2022-12-28T02:24:27.876Z,100937.31
2022-12-28T02:26:04.228Z,100940.72
2022-12-28T02:27:17.477Z,100941.34
2022-12-28T02:29:01.922Z,100938.59
2022-12-28T02:30:06.377Z,100929.81
2022-12-28T02:31:12.949Z,100933.81
2022-12-28T02:32:33.226Z,100931.09
2022-12-28T02:33:41.982Z,100928.22
2022-12-28T02:34:53.941Z,100923.56
2022-12-28T02:35:59.403Z,100916.31
2022-12-28T02:37:08.228Z,100916.13
2022-12-28T02:38:16.160Z,100920.22
2022-12-28T02:39:23.757Z,100923.06
2022-12-28T02:40:30.483Z,100922.16
2022-12-28T02:41:35.549Z,100915.78
2022-12-28T02:42:41.925Z,100915.00
2022-12-28T02:43:44.800Z,100911.59
2022-12-28T02:45:06.565Z,100913.75
2022-12-28T02:46:30.120Z,100911.66
2022-12-28T02:47:50.122Z,100908.22
2022-12-28T02:49:09.987Z,100893.50
2022-12-28T02:50:16.177Z,100897.78
2022-12-28T02:51:31.518Z,100893.66
2022-12-28T02:52:58.695Z,100890.59
2022-12-28T02:54:39.963Z,100888.38
2022-12-28T02:56:12.014Z,100887.81
2022-12-28T02:57:26.192Z,100877.69
2022-12-28T02:59:01.398Z,100873.09
2022-12-28T03:00:09.934Z,100868.09
2022-12-28T03:01:22.012Z,100875.88
2022-12-28T03:02:40.929Z,100871.47
2022-12-28T03:03:54.965Z,100870.44
2022-12-28T03:05:11.615Z,100867.16
2022-12-28T03:06:39.519Z,100863.63
2022-12-28T03:08:08.962Z,100862.84
2022-12-28T03:09:17.281Z,100869.84
2022-12-28T03:10:24.926Z,100864.63
2022-12-28T03:11:36.170Z,100863.63
2022-12-28T03:12:44.424Z,100858.00
2022-12-28T03:13:53.604Z,100846.22
2022-12-28T03:15:03.997Z,100849.59
2022-12-28T03:16:11.087Z,100845.97
2022-12-28T03:17:33.082Z,100850.00
2022-12-28T03:18:55.786Z,100847.06
2022-12-28T03:20:19.052Z,100848.59
2022-12-28T03:21:40.619Z,100845.75
2022-12-28T03:23:03.227Z,100841.88
2022-12-28T03:24:26.007Z,100838.03
2022-12-28T03:25:54.245Z,100830.16
2022-12-28T03:27:17.214Z,100833.44
2022-12-28T03:28:41.704Z,100824.22
2022-12-28T03:30:07.460Z,100825.28
2022-12-28T03:31:17.405Z,100827.06
2022-12-28T03:32:19.766Z,100823.91
2022-12-28T03:33:22.541Z,100817.28
2022-12-28T03:34:24.761Z,100821.31
2022-12-28T03:35:38.619Z,100816.50
2022-12-28T03:36:48.047Z,100806.88
2022-12-28T03:37:57.801Z,100810.16
2022-12-28T03:39:03.554Z,100811.28
2022-12-28T03:40:13.320Z,100820.47
2022-12-28T03:41:22.676Z,100805.19
2022-12-28T03:42:47.284Z,100805.63
2022-12-28T03:43:57.829Z,100808.09
2022-12-28T03:45:06.287Z,100802.94
2022-12-28T03:46:16.274Z,100799.28
2022-12-28T03:47:20.061Z,100792.72
2022-12-28T03:48:23.767Z,100787.44
2022-12-28T03:49:27.720Z,100790.84
2022-12-28T03:50:30.896Z,100790.66
2022-12-28T03:51:33.466Z,100790.03
2022-12-28T03:52:35.965Z,100797.81
2022-12-28T03:53:41.067Z,100790.47
2022-12-28T03:54:43.944Z,100781.34
2022-12-28T03:55:45.581Z,100776.06
2022-12-28T03:56:49.460Z,100787.31
2022-12-28T03:57:51.043Z,100776.97
2022-12-28T03:58:53.746Z,100777.16
2022-12-28T03:59:55.889Z,100766.72
2022-12-28T04:00:58.418Z,100766.03
2022-12-28T04:02:01.584Z,100763.94
2022-12-28T04:03:04.402Z,100759.94
2022-12-28T04:04:05.933Z,100762.78
2022-12-28T04:05:09.425Z,100759.34
2022-12-28T04:06:13.198Z,100763.47
2022-12-28T04:07:15.716Z,100754.75
2022-12-28T04:08:17.265Z,100761.94
2022-12-28T04:09:19.946Z,100756.53
2022-12-28T04:10:21.641Z,100745.84
2022-12-28T04:11:24.152Z,100740.69
2022-12-28T04:12:25.737Z,100737.88
2022-12-28T04:13:31.970Z,100742.88
2022-12-28T04:14:33.717Z,100732.41
2022-12-28T04:15:36.234Z,100732.56
2022-12-28T04:16:37.798Z,100732.31
2022-12-28T04:17:41.859Z,100741.47
2022-12-28T04:18:44.234Z,100735.59
2022-12-28T04:19:48.024Z,100729.38
2022-12-28T04:20:49.698Z,100716.81
2022-12-28T04:21:52.217Z,100718.22
2022-12-28T04:22:53.769Z,100714.84
2022-12-28T04:23:56.207Z,100715.06
2022-12-28T04:24:57.793Z,100719.50
2022-12-28T04:26:02.391Z,100733.81
2022-12-28T04:27:04.177Z,100719.84
2022-12-28T04:28:06.785Z,100711.84
2022-12-28T04:29:08.428Z,100722.78
2022-12-28T04:30:11.925Z,100711.06
2022-12-28T04:31:14.722Z,100710.34
2022-12-28T04:32:17.411Z,100730.91
2022-12-28T04:33:20.275Z,100728.44
2022-12-28T04:34:22.791Z,100726.44
2022-12-28T04:35:24.371Z,100725.88
2022-12-28T04:36:27.280Z,100730.69
2022-12-28T04:37:28.921Z,100725.06
2022-12-28T04:38:31.387Z,100729.97
2022-12-28T04:39:54.756Z,100736.69
2022-12-28T04:40:55.454Z,100725.28
2022-12-28T04:41:57.066Z,100735.03
2022-12-28T04:42:59.893Z,100727.41
2022-12-28T04:44:01.421Z,100725.53
2022-12-28T04:45:04.284Z,100719.28
2022-12-28T04:46:07.756Z,100722.22
2022-12-28T04:47:10.364Z,100725.63
2022-12-28T04:48:11.961Z,100728.25
2022-12-28T04:50:17.760Z,100725.88
2022-12-28T04:51:22.121Z,100725.19
2022-12-28T04:52:23.624Z,100718.47
2022-12-28T04:53:26.176Z,100727.19
2022-12-28T04:54:27.695Z,100714.25
2022-12-28T04:55:32.194Z,100709.78
2022-12-28T04:56:35.063Z,100713.63
2022-12-28T04:57:37.572Z,100715.31
2022-12-28T04:58:39.661Z,100712.25
2022-12-28T04:59:42.265Z,100719.06
2022-12-28T05:00:43.822Z,100717.41
2022-12-28T05:01:47.949Z,100708.84
2022-12-28T05:02:50.707Z,100697.34
2022-12-28T05:03:57.408Z,100691.78
2022-12-28T05:05:02.189Z,100688.16
2022-12-28T05:06:07.612Z,100689.81
2022-12-28T05:07:09.276Z,100690.72
2022-12-28T05:08:11.847Z,100675.81
2022-12-28T05:09:13.400Z,100677.44
2022-12-28T05:10:15.986Z,100680.59
2022-12-28T05:11:20.377Z,100672.84
2022-12-28T05:12:23.392Z,100681.78
2022-12-28T05:13:24.900Z,100675.47
2022-12-28T05:14:32.307Z,100683.19
2022-12-28T05:15:38.056Z,100667.88
2022-12-28T05:16:40.582Z,100670.84
2022-12-28T05:17:42.235Z,100666.63
2022-12-28T05:18:45.373Z,100674.78
2022-12-28T05:19:46.953Z,100675.22
2022-12-28T05:20:51.776Z,100674.75
2022-12-28T05:21:53.543Z,100677.09
2022-12-28T05:22:56.018Z,100677.34
2022-12-28T05:23:58.099Z,100674.50
2022-12-28T05:25:00.596Z,100669.69
2022-12-28T05:26:02.573Z,100688.25
2022-12-28T05:27:05.413Z,100667.56
2022-12-28T05:28:07.462Z,100670.63
2022-12-28T05:29:10.234Z,100653.69
2022-12-28T05:30:12.159Z,100653.91
2022-12-28T05:31:17.085Z,100659.59
2022-12-28T05:32:19.813Z,100670.06
2022-12-28T05:33:22.323Z,100661.22
2022-12-28T05:34:24.065Z,100665.09
2022-12-28T05:35:26.509Z,100670.75
2022-12-28T05:36:29.530Z,100674.97
2022-12-28T05:37:33.299Z,100668.72
2022-12-28T05:38:38.186Z,100668.25
2022-12-28T05:39:40.647Z,100670.38
2022-12-28T05:40:42.159Z,100659.19
2022-12-28T05:41:45.075Z,100658.81
2022-12-28T05:42:51.527Z,100658.25
2022-12-28T05:43:54.610Z,100654.25
2022-12-28T05:44:56.087Z,100653.53
2022-12-28T05:46:01.930Z,100651.66
2022-12-28T05:47:03.545Z,100649.53
2022-12-28T05:48:06.215Z,100647.19
2022-12-28T05:49:08.470Z,100648.59
2022-12-28T05:50:11.000Z,100645.41
2022-12-28T05:51:14.563Z,100643.47
2022-12-28T05:52:18.642Z,100640.25
2022-12-28T05:53:20.139Z,100643.81
2022-12-28T05:54:22.628Z,100633.47
2022-12-28T05:55:24.156Z,100632.19
2022-12-28T05:56:29.220Z,100636.41
2022-12-28T05:57:30.784Z,100632.50
2022-12-28T05:58:33.352Z,100625.00
2022-12-28T05:59:34.944Z,100625.69
2022-12-28T06:00:37.348Z,100623.19
2022-12-28T06:01:41.116Z,100614.28
2022-12-28T06:02:43.804Z,100619.44
2022-12-28T06:03:46.462Z,100633.53
2022-12-28T06:04:48.917Z,100619.41
2022-12-28T06:05:50.523Z,100632.47
2022-12-28T06:06:54.263Z,100630.97
2022-12-28T06:07:57.156Z,100628.03
2022-12-28T06:09:00.516Z,100627.31
2022-12-28T06:10:02.014Z,100633.31
2022-12-28T06:11:06.784Z,100628.66
2022-12-28T06:12:08.607Z,100628.06
2022-12-28T06:13:11.092Z,100629.34
2022-12-28T06:14:12.820Z,100628.19
2022-12-28T06:15:15.356Z,100627.44
2022-12-28T06:16:19.316Z,100623.66
2022-12-28T06:17:21.807Z,100614.38
2022-12-28T06:18:23.911Z,100612.78
2022-12-28T06:19:26.457Z,100621.16
2022-12-28T06:20:28.053Z,100603.88
2022-12-28T06:21:34.490Z,100599.78
2022-12-28T06:22:36.222Z,100603.41
2022-12-28T06:23:56.133Z,100606.56
2022-12-28T06:24:58.769Z,100603.75
2022-12-28T06:26:01.320Z,100598.94
2022-12-28T06:27:03.814Z,100593.47
2022-12-28T06:28:05.339Z,100591.91
2022-12-28T06:29:08.491Z,100590.56
2022-12-28T06:30:11.689Z,100577.50
2022-12-28T06:31:16.178Z,100581.25
2022-12-28T06:32:17.888Z,100562.19
2022-12-28T06:33:20.336Z,100557.75
2022-12-28T06:34:22.956Z,100550.72
2022-12-28T06:35:24.764Z,100551.38
2022-12-28T06:36:31.345Z,100548.63
2022-12-28T06:37:33.122Z,100550.19
2022-12-28T06:38:35.650Z,100552.41
2022-12-28T06:39:39.611Z,100541.16
2022-12-28T06:41:11.810Z,100540.50
2022-12-28T06:42:03.520Z,100539.22
2022-12-28T06:43:05.021Z,100530.28
2022-12-28T06:44:08.330Z,100538.25
2022-12-28T06:45:10.143Z,100525.66
2022-12-28T06:46:13.535Z,100531.59
2022-12-28T06:47:16.009Z,100525.75
2022-12-28T06:48:17.493Z,100529.91
2022-12-28T06:49:20.076Z,100522.41
2022-12-28T06:50:24.607Z,100511.88
2022-12-28T06:51:30.127Z,100519.50
2022-12-28T06:52:32.908Z,100519.72
2022-12-28T06:53:37.298Z,100512.28
2022-12-28T06:54:44.768Z,100524.84
2022-12-28T06:55:52.593Z,100504.03
2022-12-28T06:56:55.279Z,100504.94
2022-12-28T06:57:57.048Z,100501.56
2022-12-28T06:59:03.320Z,100498.78
2022-12-28T07:00:07.060Z,100498.09
2022-12-28T07:01:11.077Z,100505.97
2022-12-28T07:02:12.822Z,100490.47
2022-12-28T07:03:15.659Z,100485.28
2022-12-28T07:04:18.465Z,100486.03
2022-12-28T07:05:19.997Z,100480.84
2022-12-28T07:06:24.684Z,100484.63
2022-12-28T07:07:26.178Z,100472.59
2022-12-28T07:08:29.822Z,100480.75
2022-12-28T07:09:31.528Z,100480.91
2022-12-28T07:10:36.753Z,100466.16
2022-12-28T07:11:38.728Z,100466.97
2022-12-28T07:12:41.346Z,100468.75
2022-12-28T07:13:43.335Z,100466.66
2022-12-28T07:14:46.030Z,100476.06
2022-12-28T07:15:47.511Z,100480.81
2022-12-28T07:16:50.048Z,100477.53
2022-12-28T07:17:51.664Z,100475.72
2022-12-28T07:18:54.202Z,100471.19
2022-12-28T07:19:55.793Z,100487.28
2022-12-28T07:21:02.880Z,100476.66
2022-12-28T07:22:07.247Z,100491.72
2022-12-28T07:23:09.778Z,100500.41
2022-12-28T07:24:12.406Z,100496.72
2022-12-28T07:25:14.171Z,100495.28
2022-12-28T07:26:21.377Z,100492.91
2022-12-28T07:27:22.972Z,100496.94
2022-12-28T07:28:26.306Z,100493.06
2022-12-28T07:29:29.222Z,100499.63
2022-12-28T07:30:30.986Z,100491.75
2022-12-28T07:31:41.932Z,100498.28
2022-12-28T07:32:45.552Z,100490.75
2022-12-28T07:33:48.693Z,100495.81
2022-12-28T07:34:50.221Z,100501.28
2022-12-28T07:35:52.754Z,100501.84
2022-12-28T07:36:54.462Z,100507.97
2022-12-28T07:37:59.704Z,100506.41
2022-12-28T07:39:02.945Z,100511.88
2022-12-28T07:40:05.472Z,100500.09
2022-12-28T07:41:11.283Z,100515.69
2022-12-28T07:42:15.252Z,100511.31
2022-12-28T07:43:18.560Z,100516.22
2022-12-28T07:44:21.027Z,100520.81
2022-12-28T07:45:22.747Z,100519.22
2022-12-28T07:46:27.103Z,100522.00
2022-12-28T07:47:29.123Z,100525.69
2022-12-28T07:48:32.807Z,100513.81
2022-12-28T07:49:35.409Z,100517.00
2022-12-28T07:50:38.164Z,100518.25
2022-12-28T07:51:40.763Z,100512.63
2022-12-28T07:52:43.552Z,100515.28
2022-12-28T07:53:47.501Z,100508.38
2022-12-28T07:54:49.973Z,100511.28
2022-12-28T07:55:55.868Z,100511.34
2022-12-28T07:56:58.907Z,100514.28
2022-12-28T07:58:02.129Z,100509.53
2022-12-28T07:59:06.426Z,100500.28
2022-12-28T08:00:09.714Z,100501.25
2022-12-28T08:01:14.400Z,100502.22
2022-12-28T08:02:18.399Z,100501.31
2022-12-28T08:03:21.318Z,100488.44
2022-12-28T08:04:22.863Z,100490.34
2022-12-28T08:05:25.488Z,100482.53
2022-12-28T08:06:29.000Z,100486.38
2022-12-28T08:07:31.415Z,100483.91
2022-12-28T08:08:34.916Z,100483.94
2022-12-28T08:09:37.427Z,100479.84
2022-12-28T08:10:38.960Z,100478.78
2022-12-28T08:11:43.529Z,100480.81
2022-12-28T08:12:45.090Z,100474.75
2022-12-28T08:13:51.582Z,100483.94
2022-12-28T08:14:53.112Z,100485.59
2022-12-28T08:15:55.807Z,100470.72
2022-12-28T08:16:57.310Z,100472.88
2022-12-28T08:17:59.767Z,100471.97
2022-12-28T08:19:01.753Z,100475.66
2022-12-28T08:20:04.804Z,100473.19
2022-12-28T08:21:08.018Z,100486.25
2022-12-28T08:22:10.489Z,100477.63
2022-12-28T08:23:12.015Z,100469.81
2022-12-28T08:24:16.495Z,100473.53
2022-12-28T08:25:18.998Z,100467.28
2022-12-28T08:26:23.106Z,100462.09
2022-12-28T08:27:25.582Z,100466.94
2022-12-28T08:28:27.093Z,100463.75
2022-12-28T08:29:30.975Z,100468.06
2022-12-28T08:30:32.628Z,100463.69
2022-12-28T08:31:37.465Z,100461.34
2022-12-28T08:32:41.864Z,100465.94
2022-12-28T08:33:44.717Z,100459.50
2022-12-28T08:34:46.342Z,100458.19
2022-12-28T08:35:48.781Z,100458.56
2022-12-28T08:36:50.285Z,100466.03
2022-12-28T08:37:55.631Z,100460.19
2022-12-28T08:38:57.501Z,100465.56
2022-12-28T08:40:00.433Z,100462.91
2022-12-28T08:41:04.678Z,100460.84
2022-12-28T08:42:07.436Z,100469.66
2022-12-28T08:43:09.050Z,100471.56
2022-12-28T08:44:11.503Z,100469.66
2022-12-28T08:45:14.361Z,100467.97
2022-12-28T08:46:19.302Z,100465.34
2022-12-28T08:47:22.069Z,100459.31
2022-12-28T08:48:23.549Z,100474.31
2022-12-28T08:49:28.147Z,100469.66
2022-12-28T08:50:32.024Z,100467.78
2022-12-28T08:51:35.712Z,100468.28
2022-12-28T08:52:38.174Z,100475.13
2022-12-28T08:53:41.746Z,100468.41
2022-12-28T08:54:43.320Z,100474.63
2022-12-28T08:55:46.016Z,100465.44
2022-12-28T08:56:49.958Z,100481.75
2022-12-28T08:57:51.504Z,100474.34
2022-12-28T08:58:54.490Z,100470.75
2022-12-28T08:59:56.187Z,100473.72
2022-12-28T09:01:06.344Z,100476.69
2022-12-28T09:02:13.735Z,100480.88
2022-12-28T09:03:15.497Z,100477.13
2022-12-28T09:04:21.345Z,100479.81
2022-12-28T09:05:23.036Z,100478.16
2022-12-28T09:06:27.890Z,100482.28
2022-12-28T09:07:30.594Z,100477.50
2022-12-28T09:08:32.282Z,100468.31
2022-12-28T09:09:35.808Z,100465.78
2022-12-28T09:10:37.349Z,100469.47
2022-12-28T09:11:40.571Z,100476.59
2022-12-28T09:12:43.014Z,100473.31
2022-12-28T09:13:44.676Z,100461.72
2022-12-28T09:14:47.086Z,100465.44
2022-12-28T09:15:56.563Z,100465.63
2022-12-28T09:17:02.026Z,100465.94
2022-12-28T09:18:03.857Z,100464.53
2022-12-28T09:19:10.347Z,100451.88
2022-12-28T09:20:11.823Z,100462.34
2022-12-28T09:21:16.361Z,100457.09
2022-12-28T09:22:18.853Z,100464.59
2022-12-28T09:23:20.444Z,100456.63
2022-12-28T09:24:23.816Z,100463.97
2022-12-28T09:25:25.431Z,100447.88
2022-12-28T09:26:31.077Z,100444.38
2022-12-28T09:27:33.573Z,100440.59
2022-12-28T09:28:35.123Z,100434.41
2022-12-28T09:29:37.644Z,100430.34
2022-12-28T09:30:40.119Z,100439.16
2022-12-28T09:31:42.653Z,100445.66
2022-12-28T09:33:06.585Z,100430.28
2022-12-28T09:35:35.356Z,100426.59
2022-12-28T09:36:38.857Z,100423.72
2022-12-28T09:37:41.397Z,100425.97
2022-12-28T09:38:43.367Z,100420.72
2022-12-28T09:39:46.068Z,100417.53
2022-12-28T09:40:47.592Z,100425.28
2022-12-28T09:41:53.687Z,100421.78
2022-12-28T09:42:55.590Z,100427.22
2022-12-28T09:44:10.036Z,100421.53
2022-12-28T09:45:13.648Z,100426.91
2022-12-28T09:46:20.682Z,100418.66
2022-12-28T09:47:31.668Z,100411.47
2022-12-28T09:48:36.225Z,100412.84
2022-12-28T09:49:45.059Z,100400.81
2022-12-28T09:50:55.407Z,100410.22
2022-12-28T09:52:05.437Z,100414.25
2022-12-28T09:53:22.438Z,100410.97
2022-12-28T09:54:25.163Z,100419.06
2022-12-28T09:55:27.658Z,100410.69
2022-12-28T09:56:35.797Z,100416.34
2022-12-28T09:57:42.042Z,100419.94
2022-12-28T09:58:48.038Z,100419.66
2022-12-28T09:59:52.381Z,100410.50
2022-12-28T10:00:57.570Z,100417.63
2022-12-28T10:02:04.115Z,100419.47
2022-12-28T10:03:12.679Z,100424.94
2022-12-28T10:04:16.768Z,100425.72
2022-12-28T10:05:21.132Z,100424.91
2022-12-28T10:06:26.380Z,100413.81
2022-12-28T10:07:28.037Z,100425.53
2022-12-28T10:08:31.217Z,100425.53
2022-12-28T10:09:34.981Z,100422.28
2022-12-28T10:10:36.561Z,100416.28
2022-12-28T10:11:41.950Z,100404.03
2022-12-28T10:12:44.119Z,100412.47
2022-12-28T10:13:55.369Z,100404.59
2022-12-28T10:15:00.065Z,100411.38
2022-12-28T10:16:04.282Z,100403.75
2022-12-28T10:17:09.689Z,100405.69
2022-12-28T10:18:13.361Z,100406.72
2022-12-28T10:19:20.347Z,100397.75
2022-12-28T10:20:22.773Z,100399.94
2022-12-28T10:21:32.274Z,100389.34
2022-12-28T10:22:41.513Z,100385.25
2022-12-28T10:24:20.916Z,100391.25
2022-12-28T10:25:17.080Z,100377.63
2022-12-28T10:26:21.229Z,100386.88
2022-12-28T10:27:24.512Z,100387.16
2022-12-28T10:28:34.236Z,100380.34
2022-12-28T10:29:36.710Z,100381.44
2022-12-28T10:30:48.994Z,100377.63
2022-12-28T10:32:01.443Z,100379.25
2022-12-28T10:33:03.939Z,100379.00
2022-12-28T10:34:15.588Z,100372.72
2022-12-28T10:35:25.265Z,100379.56
2022-12-28T10:36:33.990Z,100370.00
2022-12-28T10:37:44.414Z,100347.41
2022-12-28T10:38:52.991Z,100373.81
2022-12-28T10:39:59.571Z,100375.94
2022-12-28T10:41:03.782Z,100361.25
2022-12-28T10:42:20.208Z,100356.06
2022-12-28T10:43:22.975Z,100348.22
2022-12-28T10:44:43.664Z,100346.59
2022-12-28T10:45:50.214Z,100346.63
2022-12-28T10:46:59.829Z,100352.59
2022-12-28T10:48:07.461Z,100339.25
2022-12-28T10:49:16.406Z,100327.00
2022-12-28T10:50:55.112Z,100329.47
2022-12-28T10:52:02.359Z,100328.66
2022-12-28T10:53:04.992Z,100324.28
2022-12-28T10:54:27.653Z,100322.66
2022-12-28T10:55:32.050Z,100322.09
2022-12-28T10:56:49.131Z,100327.84
2022-12-28T10:58:27.542Z,100320.50
2022-12-28T10:59:21.940Z,100322.66
2022-12-28T11:00:26.054Z,100318.59
2022-12-28T11:01:30.893Z,100310.41
2022-12-28T11:02:32.877Z,100309.06
2022-12-28T11:03:38.001Z,100313.13
2022-12-28T11:04:52.313Z,100309.59
2022-12-28T11:06:11.218Z,100304.16
2022-12-28T11:07:28.929Z,100311.78
2022-12-28T11:08:30.646Z,100312.34
2022-12-28T11:09:35.351Z,100317.75
2022-12-28T11:10:37.646Z,100314.50
2022-12-28T11:11:40.630Z,100313.69
2022-12-28T11:12:44.676Z,100310.13
2022-12-28T11:13:52.311Z,100315.31
2022-12-28T11:14:56.245Z,100316.94
2022-12-28T11:15:58.219Z,100317.16
2022-12-28T11:17:16.520Z,100310.63
2022-12-28T11:18:18.989Z,100318.25
2022-12-28T11:19:23.276Z,100319.81
2022-12-28T11:20:29.445Z,100346.47
2022-12-28T11:21:35.886Z,100332.44
2022-12-28T11:22:37.704Z,100320.97
2022-12-28T11:23:40.489Z,100314.41
2022-12-28T11:24:43.257Z,100321.47
2022-12-28T11:25:44.841Z,100331.53
2022-12-28T11:26:50.093Z,100315.53
2022-12-28T11:27:51.938Z,100316.06
2022-12-28T11:28:55.495Z,100313.84
2022-12-28T11:29:57.641Z,100316.84
2022-12-28T11:31:00.420Z,100327.72
2022-12-28T11:32:07.646Z,100322.81
2022-12-28T11:33:26.788Z,100330.13
2022-12-28T11:34:32.228Z,100330.94
2022-12-28T11:35:37.983Z,100337.75
2022-12-28T11:36:42.283Z,100335.00
2022-12-28T11:37:49.219Z,100329.56
2022-12-28T11:38:53.131Z,100324.53
2022-12-28T11:39:55.620Z,100330.19
2022-12-28T11:40:59.349Z,100339.66
2022-12-28T11:42:37.249Z,100337.03
2022-12-28T11:43:40.636Z,100320.50
2022-12-28T11:44:51.641Z,100317.69
2022-12-28T11:45:55.185Z,100328.94
2022-12-28T11:47:02.566Z,100316.56
2022-12-28T11:48:38.397Z,100318.69
2022-12-28T11:49:40.910Z,100318.91
2022-12-28T11:50:52.056Z,100311.78
2022-12-28T11:52:48.301Z,100314.81
2022-12-28T11:53:53.980Z,100311.13
2022-12-28T11:54:57.670Z,100317.25
2022-12-28T11:56:05.609Z,100305.25
2022-12-28T11:57:11.078Z,100303.97
2022-12-28T11:58:53.503Z,100300.19
2022-12-28T12:00:42.457Z,100304.75
2022-12-28T12:01:47.446Z,100304.63
2022-12-28T12:02:51.884Z,100295.09
2022-12-28T12:04:19.771Z,100295.78
2022-12-28T12:05:50.084Z,100298.34
2022-12-28T12:07:24.718Z,100320.03
2022-12-28T12:08:48.734Z,100309.97
2022-12-28T12:10:16.874Z,100304.50
2022-12-28T12:11:33.121Z,100306.72
2022-12-28T12:12:37.853Z,100309.03
2022-12-28T12:13:45.418Z,100304.66
2022-12-28T12:14:49.453Z,100302.06
2022-12-28T12:15:54.231Z,100301.06
2022-12-28T12:17:03.450Z,100299.94
2022-12-28T12:18:08.665Z,100305.38
2022-12-28T12:19:23.226Z,100297.53
2022-12-28T12:20:43.789Z,100296.25
2022-12-28T12:21:55.832Z,100298.34
2022-12-28T12:23:02.053Z,100287.59
2022-12-28T12:24:18.562Z,100291.13
2022-12-28T12:25:25.421Z,100291.69
2022-12-28T12:26:38.000Z,100284.63
2022-12-28T12:27:44.377Z,100278.00
2022-12-28T12:28:49.320Z,100286.03
2022-12-28T12:29:58.230Z,100297.84
2022-12-28T12:31:02.096Z,100275.66
2022-12-28T12:32:11.901Z,100276.09
2022-12-28T12:33:18.479Z,100282.13
2022-12-28T12:34:25.087Z,100269.16
2022-12-28T12:35:29.567Z,100275.53